sensor_id;sensor_type;location;lat;lon;timestamp;temperature;humidity
52899;DHT22;38763;53.096;6.062;2023-12-20T00:01:47;6.10;99.90
52899;DHT22;38763;53.096;6.062;2023-12-20T00:04:13;6.10;99.90
52899;DHT22;38763;53.096;6.062;2023-12-20T00:06:38;6.10;99.90
52899;DHT22;38763;53.096;6.062;2023-12-20T00:09:04;6.10;99.90
52899;DHT22;38763;53.096;6.062;2023-12-20T00:11:30;6.10;99.90
52899;DHT22;38763;53.096;6.062;2023-12-20T00:13:55;6.20;99.90
52899;DHT22;38763;53.096;6.062;2023-12-20T00:16:21;6.20;99.90
52899;DHT22;38763;53.096;6.062;2023-12-20T00:18:46;6.20;99.90
52899;DHT22;38763;53.096;6.062;2023-12-20T00:21:12;6.10;99.90
52899;DHT22;38763;53.096;6.062;2023-12-20T00:23:38;6.10;99.90
52899;DHT22;38763;53.096;6.062;2023-12-20T00:26:03;6.10;99.90
52899;DHT22;38763;53.096;6.062;2023-12-20T00:28:29;6.00;99.90
52899;DHT22;38763;53.096;6.062;2023-12-20T00:30:55;6.00;99.90
52899;DHT22;38763;53.096;6.062;2023-12-20T00:33:20;6.00;99.90
52899;DHT22;38763;53.096;6.062;2023-12-20T00:35:46;5.90;99.90
52899;DHT22;38763;53.096;6.062;2023-12-20T00:38:11;5.90;99.90
52899;DHT22;38763;53.096;6.062;2023-12-20T00:40:37;5.80;99.90
52899;DHT22;38763;53.096;6.062;2023-12-20T00:43:03;5.80;99.90
52899;DHT22;38763;53.096;6.062;2023-12-20T00:45:29;5.80;99.90
52899;DHT22;38763;53.096;6.062;2023-12-20T00:47:55;5.80;99.90
52899;DHT22;38763;53.096;6.062;2023-12-20T00:50:20;5.80;99.90
52899;DHT22;38763;53.096;6.062;2023-12-20T00:52:47;5.80;99.90
52899;DHT22;38763;53.096;6.062;2023-12-20T00:55:13;5.70;99.90
52899;DHT22;38763;53.096;6.062;2023-12-20T00:57:39;5.80;99.90
52899;DHT22;38763;53.096;6.062;2023-12-20T01:00:05;5.80;99.90
52899;DHT22;38763;53.096;6.062;2023-12-20T01:02:31;5.80;99.90
52899;DHT22;38763;53.096;6.062;2023-12-20T01:04:57;5.70;99.90
52899;DHT22;38763;53.096;6.062;2023-12-20T01:07:22;5.80;99.90
52899;DHT22;38763;53.096;6.062;2023-12-20T01:09:48;5.80;99.90
52899;DHT22;38763;53.096;6.062;2023-12-20T01:12:14;5.80;99.90
52899;DHT22;38763;53.096;6.062;2023-12-20T01:14:40;5.90;99.90
52899;DHT22;38763;53.096;6.062;2023-12-20T01:17:05;5.80;99.90
52899;DHT22;38763;53.096;6.062;2023-12-20T01:19:31;5.80;99.90
52899;DHT22;38763;53.096;6.062;2023-12-20T01:21:57;5.80;99.90
52899;DHT22;38763;53.096;6.062;2023-12-20T01:24:22;5.80;99.90
52899;DHT22;38763;53.096;6.062;2023-12-20T01:26:48;5.80;99.90
52899;DHT22;38763;53.096;6.062;2023-12-20T01:29:14;5.80;99.90
52899;DHT22;38763;53.096;6.062;2023-12-20T01:31:40;5.80;99.90
52899;DHT22;38763;53.096;6.062;2023-12-20T01:34:06;5.80;99.90
52899;DHT22;38763;53.096;6.062;2023-12-20T01:36:32;5.80;99.90
52899;DHT22;38763;53.096;6.062;2023-12-20T01:38:57;5.80;99.90
52899;DHT22;38763;53.096;6.062;2023-12-20T01:41:23;5.80;99.90
52899;DHT22;38763;53.096;6.062;2023-12-20T01:43:49;5.90;99.90
52899;DHT22;38763;53.096;6.062;2023-12-20T01:46:15;5.90;99.90
52899;DHT22;38763;53.096;6.062;2023-12-20T01:48:41;6.00;99.90
52899;DHT22;38763;53.096;6.062;2023-12-20T01:51:06;6.00;99.90
52899;DHT22;38763;53.096;6.062;2023-12-20T01:53:32;6.00;99.90
52899;DHT22;38763;53.096;6.062;2023-12-20T01:55:58;6.00;99.90
52899;DHT22;38763;53.096;6.062;2023-12-20T01:58:25;6.10;99.90
52899;DHT22;38763;53.096;6.062;2023-12-20T02:00:51;6.10;99.90
52899;DHT22;38763;53.096;6.062;2023-12-20T02:03:18;6.10;99.90
52899;DHT22;38763;53.096;6.062;2023-12-20T02:05:44;6.20;99.90
52899;DHT22;38763;53.096;6.062;2023-12-20T02:08:10;6.20;99.90
52899;DHT22;38763;53.096;6.062;2023-12-20T02:10:36;6.20;99.90
52899;DHT22;38763;53.096;6.062;2023-12-20T02:13:03;6.30;99.90
52899;DHT22;38763;53.096;6.062;2023-12-20T02:15:29;6.30;99.90
52899;DHT22;38763;53.096;6.062;2023-12-20T02:17:55;6.30;99.90
52899;DHT22;38763;53.096;6.062;2023-12-20T02:20:21;6.30;99.90
52899;DHT22;38763;53.096;6.062;2023-12-20T02:22:46;6.30;99.90
52899;DHT22;38763;53.096;6.062;2023-12-20T02:25:12;6.30;99.90
52899;DHT22;38763;53.096;6.062;2023-12-20T02:27:38;6.30;99.90
52899;DHT22;38763;53.096;6.062;2023-12-20T02:30:05;6.30;99.90
52899;DHT22;38763;53.096;6.062;2023-12-20T02:32:31;6.30;99.90
52899;DHT22;38763;53.096;6.062;2023-12-20T02:34:57;6.30;99.90
52899;DHT22;38763;53.096;6.062;2023-12-20T02:37:23;6.30;99.90
52899;DHT22;38763;53.096;6.062;2023-12-20T02:39:49;6.30;99.90
52899;DHT22;38763;53.096;6.062;2023-12-20T02:42:15;6.40;99.90
52899;DHT22;38763;53.096;6.062;2023-12-20T02:44:40;6.40;99.90
52899;DHT22;38763;53.096;6.062;2023-12-20T02:47:06;6.40;99.90
52899;DHT22;38763;53.096;6.062;2023-12-20T02:49:32;6.40;99.90
52899;DHT22;38763;53.096;6.062;2023-12-20T02:51:57;6.40;99.90
52899;DHT22;38763;53.096;6.062;2023-12-20T02:54:23;6.30;99.90
52899;DHT22;38763;53.096;6.062;2023-12-20T02:56:48;6.30;99.90
52899;DHT22;38763;53.096;6.062;2023-12-20T02:59:14;6.20;99.90
52899;DHT22;38763;53.096;6.062;2023-12-20T03:01:43;6.30;99.90
52899;DHT22;38763;53.096;6.062;2023-12-20T03:04:09;6.20;99.90
52899;DHT22;38763;53.096;6.062;2023-12-20T03:06:34;6.20;99.90
52899;DHT22;38763;53.096;6.062;2023-12-20T03:09:00;6.30;99.90
52899;DHT22;38763;53.096;6.062;2023-12-20T03:11:28;6.30;99.90
52899;DHT22;38763;53.096;6.062;2023-12-20T03:13:55;6.30;99.90
52899;DHT22;38763;53.096;6.062;2023-12-20T03:16:20;6.30;99.90
52899;DHT22;38763;53.096;6.062;2023-12-20T03:18:46;6.40;99.90
52899;DHT22;38763;53.096;6.062;2023-12-20T03:21:12;6.30;99.90
52899;DHT22;38763;53.096;6.062;2023-12-20T03:23:37;6.30;99.90
52899;DHT22;38763;53.096;6.062;2023-12-20T03:26:03;6.40;99.90
52899;DHT22;38763;53.096;6.062;2023-12-20T03:28:32;6.40;99.90
52899;DHT22;38763;53.096;6.062;2023-12-20T03:30:57;6.40;99.90
52899;DHT22;38763;53.096;6.062;2023-12-20T03:33:23;6.40;99.90
52899;DHT22;38763;53.096;6.062;2023-12-20T03:35:48;6.40;99.90
52899;DHT22;38763;53.096;6.062;2023-12-20T03:38:14;6.40;99.90
52899;DHT22;38763;53.096;6.062;2023-12-20T03:40:39;6.40;99.90
52899;DHT22;38763;53.096;6.062;2023-12-20T03:43:05;6.40;99.90
52899;DHT22;38763;53.096;6.062;2023-12-20T03:45:31;6.50;99.90
52899;DHT22;38763;53.096;6.062;2023-12-20T03:47:56;6.50;99.90
52899;DHT22;38763;53.096;6.062;2023-12-20T03:50:22;6.50;99.90
52899;DHT22;38763;53.096;6.062;2023-12-20T03:52:48;6.50;99.90
52899;DHT22;38763;53.096;6.062;2023-12-20T03:55:14;6.60;99.90
52899;DHT22;38763;53.096;6.062;2023-12-20T03:57:40;6.60;99.90
52899;DHT22;38763;53.096;6.062;2023-12-20T04:00:07;6.60;99.90
52899;DHT22;38763;53.096;6.062;2023-12-20T04:02:40;6.60;99.90
52899;DHT22;38763;53.096;6.062;2023-12-20T04:05:07;6.60;99.90
52899;DHT22;38763;53.096;6.062;2023-12-20T04:07:32;6.60;99.90
52899;DHT22;38763;53.096;6.062;2023-12-20T04:09:58;6.60;99.90
52899;DHT22;38763;53.096;6.062;2023-12-20T04:12:24;6.60;99.90
52899;DHT22;38763;53.096;6.062;2023-12-20T04:14:50;6.60;99.90
52899;DHT22;38763;53.096;6.062;2023-12-20T04:17:16;6.60;99.90
52899;DHT22;38763;53.096;6.062;2023-12-20T04:19:42;6.60;99.90
52899;DHT22;38763;53.096;6.062;2023-12-20T04:22:08;6.60;99.90
52899;DHT22;38763;53.096;6.062;2023-12-20T04:24:34;6.60;99.90
52899;DHT22;38763;53.096;6.062;2023-12-20T04:27:00;6.60;99.90
52899;DHT22;38763;53.096;6.062;2023-12-20T04:29:26;6.60;99.90
52899;DHT22;38763;53.096;6.062;2023-12-20T04:31:51;6.60;99.90
52899;DHT22;38763;53.096;6.062;2023-12-20T04:34:17;6.60;99.90
52899;DHT22;38763;53.096;6.062;2023-12-20T04:36:43;6.70;99.90
52899;DHT22;38763;53.096;6.062;2023-12-20T04:39:10;6.70;99.90
52899;DHT22;38763;53.096;6.062;2023-12-20T04:41:35;6.70;99.90
52899;DHT22;38763;53.096;6.062;2023-12-20T04:44:01;6.70;99.90
52899;DHT22;38763;53.096;6.062;2023-12-20T04:46:27;6.80;99.90
52899;DHT22;38763;53.096;6.062;2023-12-20T04:48:53;6.70;99.90
52899;DHT22;38763;53.096;6.062;2023-12-20T04:51:18;6.80;99.90
52899;DHT22;38763;53.096;6.062;2023-12-20T04:53:44;6.80;99.90
52899;DHT22;38763;53.096;6.062;2023-12-20T04:56:10;6.80;99.90
52899;DHT22;38763;53.096;6.062;2023-12-20T04:58:35;6.80;99.90
52899;DHT22;38763;53.096;6.062;2023-12-20T05:01:01;6.80;99.90
52899;DHT22;38763;53.096;6.062;2023-12-20T05:03:27;6.80;99.90
52899;DHT22;38763;53.096;6.062;2023-12-20T05:05:52;6.90;99.90
52899;DHT22;38763;53.096;6.062;2023-12-20T05:08:18;6.90;99.90
52899;DHT22;38763;53.096;6.062;2023-12-20T05:10:43;6.90;99.90
52899;DHT22;38763;53.096;6.062;2023-12-20T05:13:09;6.90;99.90
52899;DHT22;38763;53.096;6.062;2023-12-20T05:15:35;6.90;99.90
52899;DHT22;38763;53.096;6.062;2023-12-20T05:18:00;6.90;99.90
52899;DHT22;38763;53.096;6.062;2023-12-20T05:20:26;6.90;99.90
52899;DHT22;38763;53.096;6.062;2023-12-20T05:22:51;6.90;99.90
52899;DHT22;38763;53.096;6.062;2023-12-20T05:25:17;6.90;99.90
52899;DHT22;38763;53.096;6.062;2023-12-20T05:27:43;7.00;99.90
52899;DHT22;38763;53.096;6.062;2023-12-20T05:30:09;7.00;99.90
52899;DHT22;38763;53.096;6.062;2023-12-20T05:32:34;7.00;99.90
52899;DHT22;38763;53.096;6.062;2023-12-20T05:35:00;7.00;99.90
52899;DHT22;38763;53.096;6.062;2023-12-20T05:37:26;7.00;99.90
52899;DHT22;38763;53.096;6.062;2023-12-20T05:39:51;7.00;99.90
52899;DHT22;38763;53.096;6.062;2023-12-20T05:42:17;7.00;99.90
52899;DHT22;38763;53.096;6.062;2023-12-20T05:44:42;7.10;99.90
52899;DHT22;38763;53.096;6.062;2023-12-20T05:47:08;7.10;99.90
52899;DHT22;38763;53.096;6.062;2023-12-20T05:49:34;7.10;99.90
52899;DHT22;38763;53.096;6.062;2023-12-20T05:51:59;7.10;99.90
52899;DHT22;38763;53.096;6.062;2023-12-20T05:54:25;7.10;99.90
52899;DHT22;38763;53.096;6.062;2023-12-20T05:56:50;7.10;99.90
52899;DHT22;38763;53.096;6.062;2023-12-20T05:59:16;7.10;99.90
52899;DHT22;38763;53.096;6.062;2023-12-20T06:01:42;7.20;99.90
52899;DHT22;38763;53.096;6.062;2023-12-20T06:04:07;7.20;99.90
52899;DHT22;38763;53.096;6.062;2023-12-20T06:06:33;7.20;99.90
52899;DHT22;38763;53.096;6.062;2023-12-20T06:08:58;7.20;99.90
52899;DHT22;38763;53.096;6.062;2023-12-20T06:11:25;7.30;99.90
52899;DHT22;38763;53.096;6.062;2023-12-20T06:13:51;7.30;99.90
52899;DHT22;38763;53.096;6.062;2023-12-20T06:16:18;7.30;99.90
52899;DHT22;38763;53.096;6.062;2023-12-20T06:18:44;7.30;99.90
52899;DHT22;38763;53.096;6.062;2023-12-20T06:21:10;7.40;99.90
52899;DHT22;38763;53.096;6.062;2023-12-20T06:23:38;7.40;99.90
52899;DHT22;38763;53.096;6.062;2023-12-20T06:26:04;7.40;99.90
52899;DHT22;38763;53.096;6.062;2023-12-20T06:28:30;7.40;99.90
52899;DHT22;38763;53.096;6.062;2023-12-20T06:30:55;7.40;99.90
52899;DHT22;38763;53.096;6.062;2023-12-20T06:33:22;7.40;99.90
52899;DHT22;38763;53.096;6.062;2023-12-20T06:35:48;7.50;99.90
52899;DHT22;38763;53.096;6.062;2023-12-20T06:38:14;7.50;99.90
52899;DHT22;38763;53.096;6.062;2023-12-20T06:40:40;7.40;99.90
52899;DHT22;38763;53.096;6.062;2023-12-20T06:43:06;7.50;99.90
52899;DHT22;38763;53.096;6.062;2023-12-20T06:45:32;7.50;99.90
52899;DHT22;38763;53.096;6.062;2023-12-20T06:47:58;7.50;99.90
52899;DHT22;38763;53.096;6.062;2023-12-20T06:50:24;7.50;99.90
52899;DHT22;38763;53.096;6.062;2023-12-20T06:52:49;7.60;99.90
52899;DHT22;38763;53.096;6.062;2023-12-20T06:55:15;7.50;99.90
52899;DHT22;38763;53.096;6.062;2023-12-20T06:57:41;7.40;99.90
52899;DHT22;38763;53.096;6.062;2023-12-20T07:00:07;7.50;99.90
52899;DHT22;38763;53.096;6.062;2023-12-20T07:02:34;7.50;99.90
52899;DHT22;38763;53.096;6.062;2023-12-20T07:05:00;7.60;99.90
52899;DHT22;38763;53.096;6.062;2023-12-20T07:07:25;7.50;99.90
52899;DHT22;38763;53.096;6.062;2023-12-20T07:09:51;7.60;99.90
52899;DHT22;38763;53.096;6.062;2023-12-20T07:12:17;7.60;99.90
52899;DHT22;38763;53.096;6.062;2023-12-20T07:14:46;7.60;99.90
52899;DHT22;38763;53.096;6.062;2023-12-20T07:17:12;7.60;99.90
52899;DHT22;38763;53.096;6.062;2023-12-20T07:19:40;7.60;99.90
52899;DHT22;38763;53.096;6.062;2023-12-20T07:22:07;7.60;99.90
52899;DHT22;38763;53.096;6.062;2023-12-20T07:24:33;7.70;99.90
52899;DHT22;38763;53.096;6.062;2023-12-20T07:27:00;7.60;99.90
52899;DHT22;38763;53.096;6.062;2023-12-20T07:29:26;7.60;99.90
52899;DHT22;38763;53.096;6.062;2023-12-20T07:31:52;7.50;99.90
52899;DHT22;38763;53.096;6.062;2023-12-20T07:34:22;7.60;99.90
52899;DHT22;38763;53.096;6.062;2023-12-20T07:36:48;7.50;99.90
52899;DHT22;38763;53.096;6.062;2023-12-20T07:39:14;7.50;99.90
52899;DHT22;38763;53.096;6.062;2023-12-20T07:41:40;7.50;99.90
52899;DHT22;38763;53.096;6.062;2023-12-20T07:44:06;7.50;99.90
52899;DHT22;38763;53.096;6.062;2023-12-20T07:46:32;7.50;99.90
52899;DHT22;38763;53.096;6.062;2023-12-20T07:48:58;7.60;99.90
52899;DHT22;38763;53.096;6.062;2023-12-20T07:51:23;7.60;99.90
52899;DHT22;38763;53.096;6.062;2023-12-20T07:53:49;7.70;99.90
52899;DHT22;38763;53.096;6.062;2023-12-20T07:56:18;7.70;99.90
52899;DHT22;38763;53.096;6.062;2023-12-20T07:58:45;7.70;99.90
52899;DHT22;38763;53.096;6.062;2023-12-20T08:01:11;7.80;99.90
52899;DHT22;38763;53.096;6.062;2023-12-20T08:03:37;7.80;99.90
52899;DHT22;38763;53.096;6.062;2023-12-20T08:06:03;7.80;99.90
52899;DHT22;38763;53.096;6.062;2023-12-20T08:08:30;7.80;99.90
52899;DHT22;38763;53.096;6.062;2023-12-20T08:10:55;7.80;99.90
52899;DHT22;38763;53.096;6.062;2023-12-20T08:13:23;7.60;99.90
52899;DHT22;38763;53.096;6.062;2023-12-20T08:15:51;7.50;99.90
52899;DHT22;38763;53.096;6.062;2023-12-20T08:18:17;7.40;99.90
52899;DHT22;38763;53.096;6.062;2023-12-20T08:20:43;7.30;99.90
52899;DHT22;38763;53.096;6.062;2023-12-20T08:23:08;7.20;99.90
52899;DHT22;38763;53.096;6.062;2023-12-20T08:25:34;7.20;99.90
52899;DHT22;38763;53.096;6.062;2023-12-20T08:28:00;7.20;99.90
52899;DHT22;38763;53.096;6.062;2023-12-20T08:30:26;7.20;99.90
52899;DHT22;38763;53.096;6.062;2023-12-20T08:32:51;7.20;99.90
52899;DHT22;38763;53.096;6.062;2023-12-20T08:35:17;7.30;99.90
52899;DHT22;38763;53.096;6.062;2023-12-20T08:37:44;7.30;99.90
52899;DHT22;38763;53.096;6.062;2023-12-20T08:40:10;7.40;99.90
52899;DHT22;38763;53.096;6.062;2023-12-20T08:42:35;7.40;99.90
52899;DHT22;38763;53.096;6.062;2023-12-20T08:45:01;7.40;99.90
52899;DHT22;38763;53.096;6.062;2023-12-20T08:47:29;7.50;99.90
52899;DHT22;38763;53.096;6.062;2023-12-20T08:49:55;7.60;99.90
52899;DHT22;38763;53.096;6.062;2023-12-20T08:52:24;7.60;99.90
52899;DHT22;38763;53.096;6.062;2023-12-20T08:54:52;7.70;99.90
52899;DHT22;38763;53.096;6.062;2023-12-20T08:57:22;7.70;99.90
52899;DHT22;38763;53.096;6.062;2023-12-20T08:59:52;7.70;99.90
52899;DHT22;38763;53.096;6.062;2023-12-20T09:02:17;7.70;99.90
52899;DHT22;38763;53.096;6.062;2023-12-20T09:04:43;7.80;99.90
52899;DHT22;38763;53.096;6.062;2023-12-20T09:07:24;7.80;99.90
52899;DHT22;38763;53.096;6.062;2023-12-20T09:09:50;7.80;99.90
52899;DHT22;38763;53.096;6.062;2023-12-20T09:12:18;7.90;99.90
52899;DHT22;38763;53.096;6.062;2023-12-20T09:14:48;7.60;99.90
52899;DHT22;38763;53.096;6.062;2023-12-20T09:17:15;7.00;99.90
52899;DHT22;38763;53.096;6.062;2023-12-20T09:19:42;6.70;99.90
52899;DHT22;38763;53.096;6.062;2023-12-20T09:22:09;6.50;99.90
52899;DHT22;38763;53.096;6.062;2023-12-20T09:24:35;6.40;99.90
52899;DHT22;38763;53.096;6.062;2023-12-20T09:27:01;6.40;99.90
52899;DHT22;38763;53.096;6.062;2023-12-20T09:29:26;6.30;99.90
52899;DHT22;38763;53.096;6.062;2023-12-20T09:31:52;6.30;99.90
52899;DHT22;38763;53.096;6.062;2023-12-20T09:34:18;6.20;99.90
52899;DHT22;38763;53.096;6.062;2023-12-20T09:36:43;6.20;99.90
52899;DHT22;38763;53.096;6.062;2023-12-20T09:39:17;6.20;99.90
52899;DHT22;38763;53.096;6.062;2023-12-20T09:42:00;6.20;99.90
52899;DHT22;38763;53.096;6.062;2023-12-20T09:44:27;6.20;99.90
52899;DHT22;38763;53.096;6.062;2023-12-20T09:46:52;6.20;99.90
52899;DHT22;38763;53.096;6.062;2023-12-20T09:49:20;6.20;99.90
52899;DHT22;38763;53.096;6.062;2023-12-20T09:51:46;6.20;99.90
52899;DHT22;38763;53.096;6.062;2023-12-20T09:54:17;6.30;99.90
52899;DHT22;38763;53.096;6.062;2023-12-20T09:56:43;6.40;99.90
52899;DHT22;38763;53.096;6.062;2023-12-20T09:59:09;6.40;99.90
52899;DHT22;38763;53.096;6.062;2023-12-20T10:01:35;6.40;99.90
52899;DHT22;38763;53.096;6.062;2023-12-20T10:04:07;6.40;99.90
52899;DHT22;38763;53.096;6.062;2023-12-20T10:06:39;6.50;99.90
52899;DHT22;38763;53.096;6.062;2023-12-20T10:09:04;6.50;99.90
52899;DHT22;38763;53.096;6.062;2023-12-20T10:11:31;6.50;99.90
52899;DHT22;38763;53.096;6.062;2023-12-20T10:14:00;6.50;99.90
52899;DHT22;38763;53.096;6.062;2023-12-20T10:16:29;6.50;99.90
52899;DHT22;38763;53.096;6.062;2023-12-20T10:18:55;6.50;99.90
52899;DHT22;38763;53.096;6.062;2023-12-20T10:21:25;6.50;99.90
52899;DHT22;38763;53.096;6.062;2023-12-20T10:23:55;6.60;99.90
52899;DHT22;38763;53.096;6.062;2023-12-20T10:26:25;6.70;99.90
52899;DHT22;38763;53.096;6.062;2023-12-20T10:28:54;6.80;99.90
52899;DHT22;38763;53.096;6.062;2023-12-20T10:31:30;6.90;99.90
52899;DHT22;38763;53.096;6.062;2023-12-20T10:34:01;6.90;99.90
52899;DHT22;38763;53.096;6.062;2023-12-20T10:36:29;6.90;99.90
52899;DHT22;38763;53.096;6.062;2023-12-20T10:38:56;7.00;99.90
52899;DHT22;38763;53.096;6.062;2023-12-20T10:41:28;7.00;99.90
52899;DHT22;38763;53.096;6.062;2023-12-20T10:44:04;7.00;99.90
52899;DHT22;38763;53.096;6.062;2023-12-20T10:46:34;7.10;99.90
52899;DHT22;38763;53.096;6.062;2023-12-20T10:49:02;7.00;99.90
52899;DHT22;38763;53.096;6.062;2023-12-20T10:51:28;7.00;99.90
52899;DHT22;38763;53.096;6.062;2023-12-20T10:53:55;7.00;99.90
52899;DHT22;38763;53.096;6.062;2023-12-20T10:56:21;7.00;99.90
52899;DHT22;38763;53.096;6.062;2023-12-20T10:58:49;7.10;99.90
52899;DHT22;38763;53.096;6.062;2023-12-20T11:01:16;7.10;99.90
52899;DHT22;38763;53.096;6.062;2023-12-20T11:03:51;7.10;99.90
52899;DHT22;38763;53.096;6.062;2023-12-20T11:09:33;7.20;99.90
52899;DHT22;38763;53.096;6.062;2023-12-20T11:12:16;7.20;99.90
52899;DHT22;38763;53.096;6.062;2023-12-20T11:14:47;7.20;99.90
52899;DHT22;38763;53.096;6.062;2023-12-20T11:17:13;7.30;99.90
52899;DHT22;38763;53.096;6.062;2023-12-20T11:22:20;7.40;99.90
52899;DHT22;38763;53.096;6.062;2023-12-20T11:24:47;7.40;99.90
52899;DHT22;38763;53.096;6.062;2023-12-20T11:27:13;7.40;99.90
52899;DHT22;38763;53.096;6.062;2023-12-20T11:29:40;7.40;99.90
52899;DHT22;38763;53.096;6.062;2023-12-20T11:34:59;7.50;99.90
52899;DHT22;38763;53.096;6.062;2023-12-20T11:37:35;7.60;99.90
52899;DHT22;38763;53.096;6.062;2023-12-20T11:40:02;7.60;99.90
52899;DHT22;38763;53.096;6.062;2023-12-20T11:42:42;7.60;99.90
52899;DHT22;38763;53.096;6.062;2023-12-20T11:45:19;7.70;99.90
52899;DHT22;38763;53.096;6.062;2023-12-20T11:47:47;7.70;99.90
52899;DHT22;38763;53.096;6.062;2023-12-20T11:50:15;7.70;99.90
52899;DHT22;38763;53.096;6.062;2023-12-20T11:52:41;7.70;99.90
52899;DHT22;38763;53.096;6.062;2023-12-20T11:55:07;7.70;99.90
52899;DHT22;38763;53.096;6.062;2023-12-20T11:57:33;7.70;99.90
52899;DHT22;38763;53.096;6.062;2023-12-20T11:59:59;7.70;99.90
52899;DHT22;38763;53.096;6.062;2023-12-20T12:02:25;7.70;99.90
52899;DHT22;38763;53.096;6.062;2023-12-20T12:04:50;7.70;99.90
52899;DHT22;38763;53.096;6.062;2023-12-20T12:07:17;7.70;99.90
52899;DHT22;38763;53.096;6.062;2023-12-20T12:09:43;7.60;99.90
52899;DHT22;38763;53.096;6.062;2023-12-20T12:12:10;7.70;99.90
52899;DHT22;38763;53.096;6.062;2023-12-20T12:14:37;7.60;99.90
52899;DHT22;38763;53.096;6.062;2023-12-20T12:17:03;7.60;99.90
52899;DHT22;38763;53.096;6.062;2023-12-20T12:19:29;7.60;99.90
52899;DHT22;38763;53.096;6.062;2023-12-20T12:22:15;7.60;99.90
52899;DHT22;38763;53.096;6.062;2023-12-20T12:24:43;7.60;99.90
52899;DHT22;38763;53.096;6.062;2023-12-20T12:27:09;7.60;99.90
52899;DHT22;38763;53.096;6.062;2023-12-20T12:29:36;7.50;99.90
52899;DHT22;38763;53.096;6.062;2023-12-20T12:32:09;7.50;99.90
52899;DHT22;38763;53.096;6.062;2023-12-20T12:34:35;7.50;99.90
52899;DHT22;38763;53.096;6.062;2023-12-20T12:37:03;7.50;99.90
52899;DHT22;38763;53.096;6.062;2023-12-20T12:39:29;7.50;99.90
52899;DHT22;38763;53.096;6.062;2023-12-20T12:41:56;7.40;99.90
52899;DHT22;38763;53.096;6.062;2023-12-20T12:44:23;7.30;99.90
52899;DHT22;38763;53.096;6.062;2023-12-20T12:46:50;7.30;99.90
52899;DHT22;38763;53.096;6.062;2023-12-20T12:49:22;7.30;99.90
52899;DHT22;38763;53.096;6.062;2023-12-20T12:51:47;7.10;99.90
52899;DHT22;38763;53.096;6.062;2023-12-20T12:54:13;7.10;99.90
52899;DHT22;38763;53.096;6.062;2023-12-20T12:56:41;7.00;99.90
52899;DHT22;38763;53.096;6.062;2023-12-20T12:59:07;6.90;99.90
52899;DHT22;38763;53.096;6.062;2023-12-20T13:01:32;6.90;99.90
52899;DHT22;38763;53.096;6.062;2023-12-20T13:03:58;6.90;99.90
52899;DHT22;38763;53.096;6.062;2023-12-20T13:06:23;6.90;99.90
52899;DHT22;38763;53.096;6.062;2023-12-20T13:08:49;6.80;99.90
52899;DHT22;38763;53.096;6.062;2023-12-20T13:11:15;6.80;99.90
52899;DHT22;38763;53.096;6.062;2023-12-20T13:13:41;6.80;99.90
52899;DHT22;38763;53.096;6.062;2023-12-20T13:16:07;6.80;99.90
52899;DHT22;38763;53.096;6.062;2023-12-20T13:18:33;6.70;99.90
52899;DHT22;38763;53.096;6.062;2023-12-20T13:20:58;6.80;99.90
52899;DHT22;38763;53.096;6.062;2023-12-20T13:23:24;6.70;99.90
52899;DHT22;38763;53.096;6.062;2023-12-20T13:25:49;6.70;99.90
52899;DHT22;38763;53.096;6.062;2023-12-20T13:28:15;6.70;99.90
52899;DHT22;38763;53.096;6.062;2023-12-20T13:30:41;6.60;99.90
52899;DHT22;38763;53.096;6.062;2023-12-20T13:33:07;6.60;99.90
52899;DHT22;38763;53.096;6.062;2023-12-20T13:35:34;6.60;99.90
52899;DHT22;38763;53.096;6.062;2023-12-20T13:38:00;6.60;99.90
52899;DHT22;38763;53.096;6.062;2023-12-20T13:40:26;6.60;99.90
52899;DHT22;38763;53.096;6.062;2023-12-20T13:42:52;6.70;99.90
52899;DHT22;38763;53.096;6.062;2023-12-20T13:45:18;6.70;99.90
52899;DHT22;38763;53.096;6.062;2023-12-20T13:47:43;6.60;99.90
52899;DHT22;38763;53.096;6.062;2023-12-20T13:50:09;6.60;99.90
52899;DHT22;38763;53.096;6.062;2023-12-20T13:52:35;6.70;99.90
52899;DHT22;38763;53.096;6.062;2023-12-20T13:55:01;6.70;99.90
52899;DHT22;38763;53.096;6.062;2023-12-20T13:57:27;6.70;99.90
52899;DHT22;38763;53.096;6.062;2023-12-20T13:59:55;6.70;99.90
52899;DHT22;38763;53.096;6.062;2023-12-20T14:02:23;6.70;99.90
52899;DHT22;38763;53.096;6.062;2023-12-20T14:04:48;6.60;99.90
52899;DHT22;38763;53.096;6.062;2023-12-20T14:07:14;6.60;99.90
52899;DHT22;38763;53.096;6.062;2023-12-20T14:09:41;6.60;99.90
52899;DHT22;38763;53.096;6.062;2023-12-20T14:12:11;6.60;99.90
52899;DHT22;38763;53.096;6.062;2023-12-20T14:14:37;6.60;99.90
52899;DHT22;38763;53.096;6.062;2023-12-20T14:17:03;6.60;99.90
52899;DHT22;38763;53.096;6.062;2023-12-20T14:19:29;6.60;99.90
52899;DHT22;38763;53.096;6.062;2023-12-20T14:21:55;6.60;99.90
52899;DHT22;38763;53.096;6.062;2023-12-20T14:24:20;6.70;99.90
52899;DHT22;38763;53.096;6.062;2023-12-20T14:26:46;6.70;99.90
52899;DHT22;38763;53.096;6.062;2023-12-20T14:29:11;6.60;99.90
52899;DHT22;38763;53.096;6.062;2023-12-20T14:31:37;6.60;99.90
52899;DHT22;38763;53.096;6.062;2023-12-20T14:34:04;6.60;99.90
52899;DHT22;38763;53.096;6.062;2023-12-20T14:36:30;6.60;99.90
52899;DHT22;38763;53.096;6.062;2023-12-20T14:38:58;6.70;99.90
52899;DHT22;38763;53.096;6.062;2023-12-20T14:41:24;6.70;99.90
52899;DHT22;38763;53.096;6.062;2023-12-20T14:43:51;6.60;99.90
52899;DHT22;38763;53.096;6.062;2023-12-20T14:46:19;6.60;99.90
52899;DHT22;38763;53.096;6.062;2023-12-20T14:48:45;6.60;99.90
52899;DHT22;38763;53.096;6.062;2023-12-20T14:51:11;6.60;99.90
52899;DHT22;38763;53.096;6.062;2023-12-20T14:53:38;6.60;99.90
52899;DHT22;38763;53.096;6.062;2023-12-20T14:56:05;6.60;99.90
52899;DHT22;38763;53.096;6.062;2023-12-20T14:58:31;6.60;99.90
52899;DHT22;38763;53.096;6.062;2023-12-20T15:00:57;6.60;99.90
52899;DHT22;38763;53.096;6.062;2023-12-20T15:03:23;6.60;99.90
52899;DHT22;38763;53.096;6.062;2023-12-20T15:05:48;6.70;99.90
52899;DHT22;38763;53.096;6.062;2023-12-20T15:08:14;6.70;99.90
52899;DHT22;38763;53.096;6.062;2023-12-20T15:10:39;6.70;99.90
52899;DHT22;38763;53.096;6.062;2023-12-20T15:13:05;6.70;99.90
52899;DHT22;38763;53.096;6.062;2023-12-20T15:15:31;6.80;99.90
52899;DHT22;38763;53.096;6.062;2023-12-20T15:17:59;6.80;99.90
52899;DHT22;38763;53.096;6.062;2023-12-20T15:20:25;6.90;99.90
52899;DHT22;38763;53.096;6.062;2023-12-20T15:22:50;6.90;99.90
52899;DHT22;38763;53.096;6.062;2023-12-20T15:25:16;6.90;99.90
52899;DHT22;38763;53.096;6.062;2023-12-20T15:27:48;6.90;99.90
52899;DHT22;38763;53.096;6.062;2023-12-20T15:30:21;7.10;99.90
52899;DHT22;38763;53.096;6.062;2023-12-20T15:32:49;7.10;99.90
52899;DHT22;38763;53.096;6.062;2023-12-20T15:35:15;7.10;99.90
52899;DHT22;38763;53.096;6.062;2023-12-20T15:37:41;7.20;99.90
52899;DHT22;38763;53.096;6.062;2023-12-20T15:40:11;7.20;99.90
52899;DHT22;38763;53.096;6.062;2023-12-20T15:42:38;7.20;99.90
52899;DHT22;38763;53.096;6.062;2023-12-20T15:45:05;7.20;99.90
52899;DHT22;38763;53.096;6.062;2023-12-20T15:47:32;7.10;99.90
52899;DHT22;38763;53.096;6.062;2023-12-20T15:49:57;7.10;99.90